Time;durP1;ratioP1;P1;durP2;ratioP2;P2;SDS_P1;SDS_P2;PMS_P1;PMS_P2;Temp;Humidity;BMP_temperature;BMP_pressure;BME280_temperature;BME280_humidity;BME280_pressure;Samples;Min_cycle;Max_cycle;Signal;HPM_P1;HPM_P2
2021/08/25 00:01:01;;;;;;;14.63;11.08;;;;;;;21.36;97.85;101167.56;1667391;86;20992;-88
2021/08/25 00:03:28;;;;;;;14.50;10.80;;;;;;;21.34;98.03;101166.91;1642580;86;21124;-87
2021/08/25 00:05:55;;;;;;;15.30;11.20;;;;;;;21.31;97.91;101160.62;1667550;86;20936;-87
2021/08/25 00:08:21;;;;;;;16.62;10.80;;;;;;;21.27;98.01;101155.31;1667406;85;21075;-86
2021/08/25 00:10:48;;;;;;;22.15;11.65;;;;;;;21.25;98.07;101158.62;1667375;85;21459;-86
2021/08/25 00:13:14;;;;;;;14.30;10.43;;;;;;;21.21;98.25;101155.46;1667329;86;20975;-86
2021/08/25 00:15:42;;;;;;;14.95;10.88;;;;;;;21.20;98.54;101149.01;1667359;85;21091;-86
2021/08/25 00:18:09;;;;;;;15.83;10.30;;;;;;;21.17;98.99;101141.41;1667229;86;21040;-86
2021/08/25 00:20:36;;;;;;;15.20;10.18;;;;;;;21.16;99.39;101144.53;1667273;85;21570;-87
2021/08/25 00:23:03;;;;;;;15.88;11.45;;;;;;;21.15;100.00;101138.94;1667213;86;20983;-87
2021/08/25 00:25:29;;;;;;;18.23;10.38;;;;;;;21.14;100.00;101141.23;1667234;86;20876;-87
2021/08/25 00:27:56;;;;;;;16.45;11.05;;;;;;;21.13;99.89;101145.33;1667449;86;21098;-87
2021/08/25 00:30:22;;;;;;;14.83;10.98;;;;;;;21.08;99.71;101145.30;1667261;85;20900;-87
2021/08/25 00:32:50;;;;;;;20.97;11.88;;;;;;;21.05;99.98;101143.47;1667463;86;20936;-86
2021/08/25 00:35:17;;;;;;;15.38;11.03;;;;;;;21.02;100.00;101135.37;1667441;85;21529;-86
2021/08/25 00:37:44;;;;;;;15.45;10.90;;;;;;;21.02;100.00;101135.87;1667440;85;20916;-87
2021/08/25 00:40:15;;;;;;;17.17;12.03;;;;;;;21.00;100.00;101138.65;1667346;86;21139;-86
2021/08/25 00:42:41;;;;;;;18.90;10.80;;;;;;;20.99;100.00;101138.34;1642897;86;21052;-87
2021/08/25 00:45:09;;;;;;;16.75;10.98;;;;;;;21.00;100.00;101135.18;1667327;86;21027;-87
2021/08/25 00:47:40;;;;;;;16.10;11.15;;;;;;;20.97;100.00;101127.09;1667242;86;21000;-87
2021/08/25 00:50:08;;;;;;;14.85;10.72;;;;;;;20.98;100.00;101135.84;1667726;85;20888;-86
2021/08/25 00:52:37;;;;;;;15.95;11.00;;;;;;;20.96;100.00;101133.86;1667267;86;21104;-87
2021/08/25 00:55:06;;;;;;;14.10;10.68;;;;;;;20.95;100.00;101137.47;1667265;86;20935;-87
2021/08/25 00:57:34;;;;;;;13.85;10.88;;;;;;;20.94;100.00;101141.09;1670936;84;21051;-88
2021/08/25 01:00:08;;;;;;;16.90;11.12;;;;;;;20.91;100.00;101130.84;1702458;84;21113;-87
2021/08/25 01:02:52;;;;;;;18.48;10.70;;;;;;;20.89;100.00;101138.10;1677824;85;21047;-86
2021/08/25 01:05:18;;;;;;;12.95;11.12;;;;;;;20.86;100.00;101134.45;1677499;85;21733;-86
2021/08/25 01:07:47;;;;;;;13.70;10.72;;;;;;;20.82;100.00;101135.74;1677640;84;20871;-86
2021/08/25 01:10:32;;;;;;;16.95;11.03;;;;;;;20.78;100.00;101129.11;1677517;84;20951;-86
2021/08/25 01:13:00;;;;;;;17.23;10.63;;;;;;;20.76;100.00;101128.45;1677810;85;21415;-87
2021/08/25 01:15:30;;;;;;;12.20;10.13;;;;;;;20.74;100.00;101127.80;1677909;85;20891;-87
2021/08/25 01:18:01;;;;;;;16.32;10.40;;;;;;;20.71;100.00;101134.18;1677855;85;21078;-87
2021/08/25 01:20:28;;;;;;;14.10;10.53;;;;;;;20.69;100.00;101140.11;1678086;85;21379;-86
2021/08/25 01:22:56;;;;;;;17.45;10.00;;;;;;;20.66;100.00;101137.78;1702178;84;21041;-86
2021/08/25 01:25:29;;;;;;;11.93;9.85;;;;;;;20.64;100.00;101133.66;1678008;85;20967;-86
2021/08/25 01:28:02;;;;;;;16.62;9.95;;;;;;;20.64;100.00;101134.48;1677927;85;20900;-86
2021/08/25 01:30:32;;;;;;;12.13;10.05;;;;;;;20.63;100.00;101133.31;1677542;84;21128;-86
2021/08/25 01:32:59;;;;;;;13.58;9.85;;;;;;;20.62;100.00;101127.69;1677709;85;21410;-86
2021/08/25 01:35:37;;;;;;;13.68;10.00;;;;;;;20.61;100.00;101127.38;1677586;84;20944;-86
2021/08/25 01:38:04;;;;;;;12.43;10.40;;;;;;;20.60;100.00;101129.18;1677945;85;21505;-86
2021/08/25 01:40:33;;;;;;;16.87;10.53;;;;;;;20.62;100.00;101131.64;1677705;85;21070;-87
2021/08/25 01:43:00;;;;;;;15.80;10.50;;;;;;;20.61;100.00;101126.89;1677735;85;21118;-86
2021/08/25 01:45:27;;;;;;;11.90;9.53;;;;;;;20.59;100.00;101123.07;1677663;85;20920;-87
2021/08/25 01:47:55;;;;;;;13.55;10.00;;;;;;;20.57;100.00;101122.41;1677812;85;21509;-87
2021/08/25 01:50:21;;;;;;;13.93;9.75;;;;;;;20.55;100.00;101127.47;1677790;85;21537;-87
2021/08/25 01:52:49;;;;;;;12.33;10.13;;;;;;;20.54;100.00;101127.16;1677966;85;20931;-87
2021/08/25 01:55:16;;;;;;;13.25;10.50;;;;;;;20.51;100.00;101126.98;1677687;85;21123;-87
2021/08/25 01:57:44;;;;;;;18.70;10.55;;;;;;;20.50;100.00;101127.95;1669213;85;21177;-87
2021/08/25 02:00:12;;;;;;;15.50;9.95;;;;;;;20.50;100.00;101125.80;1649088;87;20982;-87
2021/08/25 02:02:38;;;;;;;13.55;9.70;;;;;;;20.48;100.00;101128.61;1648996;87;21070;-86
2021/08/25 02:05:06;;;;;;;18.35;10.93;;;;;;;20.49;100.00;101124.97;1649002;87;21553;-87
2021/08/25 02:07:33;;;;;;;13.10;9.48;;;;;;;20.50;100.00;101125.31;1649114;87;21124;-87
2021/08/25 02:10:00;;;;;;;16.05;11.65;;;;;;;20.50;100.00;101120.05;1649052;87;21566;-87
2021/08/25 02:12:27;;;;;;;14.50;11.70;;;;;;;20.48;100.00;101124.66;1649161;87;20978;-87
2021/08/25 02:14:56;;;;;;;16.95;10.85;;;;;;;20.46;100.00;101113.42;1649222;87;20982;-86
2021/08/25 02:17:24;;;;;;;14.47;10.20;;;;;;;20.44;100.00;101111.92;1649138;87;22400;-86
2021/08/25 02:19:50;;;;;;;12.47;10.23;;;;;;;20.43;100.00;101106.30;1649190;87;21111;-86
2021/08/25 02:22:17;;;;;;;17.52;9.85;;;;;;;20.41;100.00;101103.00;1648923;87;21518;-86
2021/08/25 02:24:43;;;;;;;16.90;10.60;;;;;;;20.42;100.00;101105.47;1649101;87;21037;-86
2021/08/25 02:27:10;;;;;;;13.80;9.95;;;;;;;20.44;100.00;101111.92;1649527;87;21018;-87
2021/08/25 02:29:36;;;;;;;17.42;10.45;;;;;;;20.44;100.00;101115.39;1649272;87;21031;-86
2021/08/25 02:32:04;;;;;;;22.17;12.33;;;;;;;20.39;99.92;101114.20;1649166;87;21080;-88
2021/08/25 02:34:31;;;;;;;19.35;12.75;;;;;;;20.28;98.80;101116.58;1649268;87;21014;-88
2021/08/25 02:36:59;;;;;;;21.73;12.18;;;;;;;20.17;98.57;101119.41;1649400;87;20927;-88
2021/08/25 02:39:25;;;;;;;19.15;11.65;;;;;;;20.04;98.57;101118.96;1649295;87;21019;-87
2021/08/25 02:41:52;;;;;;;25.25;12.03;;;;;;;19.94;98.72;101115.59;1650011;87;21062;-88
2021/08/25 02:44:21;;;;;;;18.05;11.33;;;;;;;19.84;99.00;101115.67;1649310;87;21138;-87
2021/08/25 02:46:48;;;;;;;25.90;13.15;;;;;;;19.76;99.27;101110.79;1649205;87;20891;-87
2021/08/25 02:49:15;;;;;;;41.28;18.05;;;;;;;19.70;99.48;101114.02;1649164;87;21030;-88
2021/08/25 02:51:42;;;;;;;32.42;15.78;;;;;;;19.64;99.62;101118.57;1649125;87;21518;-88
2021/08/25 02:54:08;;;;;;;30.12;14.87;;;;;;;19.59;99.85;101120.34;1649108;87;20967;-87
2021/08/25 02:56:35;;;;;;;30.55;14.13;;;;;;;19.55;100.00;101118.98;1649350;87;21086;-87
2021/08/25 02:59:02;;;;;;;28.62;14.25;;;;;;;19.56;100.00;101121.93;1648889;85;21038;-87
2021/08/25 03:01:31;;;;;;;28.42;13.25;;;;;;;19.54;100.00;101121.27;1649518;85;20939;-88
2021/08/25 03:03:57;;;;;;;36.42;16.60;;;;;;;19.56;100.00;101126.39;1649239;87;20983;-87
2021/08/25 03:06:24;;;;;;;32.40;14.98;;;;;;;19.57;100.00;101132.81;1649089;87;21585;-87
2021/08/25 03:08:51;;;;;;;24.02;12.58;;;;;;;19.59;100.00;101136.14;1649069;87;21164;-87
2021/08/25 03:11:17;;;;;;;25.75;13.08;;;;;;;19.61;100.00;101140.77;1648878;87;21067;-86
2021/08/25 03:13:44;;;;;;;28.50;11.97;;;;;;;19.61;100.00;101135.98;1649266;87;20954;-87
2021/08/25 03:16:12;;;;;;;19.17;11.18;;;;;;;19.59;100.00;101139.27;1649250;87;21074;-87
2021/08/25 03:18:38;;;;;;;21.07;11.12;;;;;;;19.54;100.00;101138.37;1649338;87;20927;-88
2021/08/25 03:21:05;;;;;;;18.62;10.20;;;;;;;19.54;100.00;101144.47;1649527;87;21147;-86
2021/08/25 03:23:32;;;;;;;20.20;11.33;;;;;;;19.53;100.00;101141.97;1649480;87;21585;-89
2021/08/25 03:25:59;;;;;;;17.17;11.15;;;;;;;19.51;100.00;101145.25;1649642;87;21026;-87
2021/08/25 03:28:26;;;;;;;18.15;9.98;;;;;;;19.48;100.00;101142.91;1649696;87;21137;-88
2021/08/25 03:30:56;;;;;;;17.80;10.25;;;;;;;19.45;100.00;101141.89;1649377;87;21653;-85
2021/08/25 03:33:21;;;;;;;12.80;9.25;;;;;;;19.42;100.00;101151.40;1649264;85;21124;-84
2021/08/25 03:35:47;;;;;;;18.50;10.55;;;;;;;19.37;100.00;101153.59;1649231;87;21572;-87
2021/08/25 03:38:14;;;;;;;20.95;11.73;;;;;;;19.32;100.00;101154.05;1649546;87;21053;-88
2021/08/25 03:40:41;;;;;;;27.77;15.80;;;;;;;19.29;100.00;101161.39;1648939;87;20971;-88
2021/08/25 03:43:07;;;;;;;29.27;16.93;;;;;;;19.30;100.00;101158.63;1649431;87;21497;-87
2021/08/25 03:45:36;;;;;;;34.65;18.42;;;;;;;19.31;100.00;101154.17;1649289;87;21723;-89
2021/08/25 03:48:03;;;;;;;27.98;16.48;;;;;;;19.33;100.00;101158.83;1649005;87;21066;-87
2021/08/25 03:50:30;;;;;;;25.10;14.95;;;;;;;19.36;100.00;101158.53;1648937;87;20967;-87
2021/08/25 03:52:57;;;;;;;18.00;12.55;;;;;;;19.37;100.00;101153.59;1649044;87;21008;-87
2021/08/25 03:55:23;;;;;;;20.70;13.93;;;;;;;19.38;100.00;101152.14;1649506;87;21581;-87
2021/08/25 03:57:50;;;;;;;22.55;13.65;;;;;;;19.40;100.00;101153.36;1649982;86;21117;-87
2021/08/25 04:00:16;;;;;;;23.87;13.38;;;;;;;19.43;100.00;101154.38;1667140;86;20976;-87
2021/08/25 04:02:43;;;;;;;17.42;13.10;;;;;;;19.45;100.00;101155.88;1667613;86;21035;-87
2021/08/25 04:05:10;;;;;;;21.42;13.68;;;;;;;19.49;100.00;101157.26;1667234;86;20998;-87
2021/08/25 04:07:38;;;;;;;20.60;12.63;;;;;;;19.53;100.00;101151.19;1667207;83;21530;-88
2021/08/25 04:10:07;;;;;;;17.42;12.20;;;;;;;19.57;100.00;101148.61;1667349;83;20932;-87
2021/08/25 04:12:35;;;;;;;18.65;12.25;;;;;;;19.61;100.00;101151.78;1667187;83;20984;-87
2021/08/25 04:15:05;;;;;;;17.32;11.88;;;;;;;19.65;100.00;101146.08;1667472;85;21023;-87
2021/08/25 04:17:33;;;;;;;20.20;11.25;;;;;;;19.68;100.00;101151.05;1667371;86;21022;-87
2021/08/25 04:19:59;;;;;;;17.92;10.98;;;;;;;19.72;100.00;101148.44;1667457;86;21000;-87
2021/08/25 04:22:26;;;;;;;23.73;11.38;;;;;;;19.75;100.00;101153.92;1667618;85;21620;-87
2021/08/25 04:24:54;;;;;;;20.57;11.85;;;;;;;19.80;100.00;101152.49;1667516;83;20952;-87
2021/08/25 04:27:23;;;;;;;18.17;11.65;;;;;;;19.84;100.00;101148.59;1667660;86;20972;-87
2021/08/25 04:29:51;;;;;;;20.50;16.95;;;;;;;19.88;100.00;101153.05;1667280;85;20967;-87
2021/08/25 04:32:17;;;;;;;29.75;23.55;;;;;;;19.91;100.00;101148.31;1667540;86;20992;-88
2021/08/25 04:34:44;;;;;;;23.57;17.67;;;;;;;19.96;100.00;101147.88;1667220;86;21717;-87
2021/08/25 04:37:10;;;;;;;25.57;17.25;;;;;;;20.01;100.00;101150.39;1667540;85;20982;-87
2021/08/25 04:39:36;;;;;;;27.73;15.15;;;;;;;20.05;100.00;101153.08;1667332;86;20987;-88
2021/08/25 04:42:03;;;;;;;21.40;14.03;;;;;;;20.11;100.00;101156.91;1667496;86;21035;-87
2021/08/25 04:44:30;;;;;;;19.77;14.10;;;;;;;20.16;100.00;101148.56;1642376;86;21098;-87
2021/08/25 04:46:57;;;;;;;22.90;13.35;;;;;;;20.21;100.00;101147.12;1667453;84;21099;-89
2021/08/25 04:49:24;;;;;;;25.32;13.62;;;;;;;20.28;100.00;101157.44;1666964;86;20967;-87
2021/08/25 04:51:52;;;;;;;23.02;13.95;;;;;;;20.34;100.00;101153.36;1667899;86;21438;-88
2021/08/25 04:54:19;;;;;;;22.75;13.38;;;;;;;20.40;100.00;101161.97;1667260;86;20897;-88
2021/08/25 04:56:46;;;;;;;20.90;12.73;;;;;;;20.44;100.00;101160.21;1667718;86;21068;-88
2021/08/25 04:59:12;;;;;;;17.50;12.47;;;;;;;20.47;100.00;101164.34;1667548;85;21755;-85
2021/08/25 05:01:40;;;;;;;20.27;12.00;;;;;;;20.51;100.00;101164.38;1667325;86;20921;-89
2021/08/25 05:04:06;;;;;;;22.90;12.20;;;;;;;20.54;100.00;101161.44;1667413;85;20884;-88
2021/08/25 05:06:33;;;;;;;22.37;13.08;;;;;;;20.59;100.00;101167.06;1667548;86;21098;-87
2021/08/25 05:09:00;;;;;;;21.85;12.05;;;;;;;20.65;100.00;101166.94;1667436;85;20941;-86
2021/08/25 05:11:28;;;;;;;17.05;10.80;;;;;;;20.70;100.00;101166.84;1667262;83;20924;-87
2021/08/25 05:13:55;;;;;;;22.50;10.60;;;;;;;20.75;100.00;101163.23;1667320;85;20916;-87
2021/08/25 05:16:21;;;;;;;15.18;9.83;;;;;;;20.80;100.00;101158.83;1667202;86;21054;-87
2021/08/25 05:18:47;;;;;;;14.68;9.55;;;;;;;20.88;100.00;101168.09;1667415;86;21484;-88
2021/08/25 05:21:14;;;;;;;16.23;9.70;;;;;;;20.92;100.00;101162.36;1667359;85;20928;-87
2021/08/25 05:23:41;;;;;;;14.65;9.18;;;;;;;20.98;100.00;101168.33;1667177;86;21117;-88
2021/08/25 05:26:07;;;;;;;18.25;9.38;;;;;;;21.07;100.00;101170.52;1667240;86;20880;-88
2021/08/25 05:28:34;;;;;;;12.47;8.20;;;;;;;21.15;100.00;101169.78;1667299;86;21011;-87
2021/08/25 05:31:01;;;;;;;13.00;8.38;;;;;;;21.24;100.00;101165.70;1668332;84;21475;-87
2021/08/25 05:33:28;;;;;;;12.53;8.73;;;;;;;21.32;100.00;101168.37;1667676;86;20872;-87
2021/08/25 05:35:55;;;;;;;13.48;8.30;;;;;;;21.41;100.00;101159.48;1668593;84;21094;-86
2021/08/25 05:38:21;;;;;;;14.13;8.63;;;;;;;21.50;100.00;101166.97;1667954;86;20968;-86
2021/08/25 05:40:49;;;;;;;15.78;8.85;;;;;;;21.57;100.00;101163.52;1669749;86;20888;-85
2021/08/25 05:43:20;;;;;;;18.52;8.95;;;;;;;21.66;100.00;101159.11;1669774;84;20951;-85
2021/08/25 05:45:51;;;;;;;13.88;9.00;;;;;;;21.77;100.00;101161.92;1669859;85;21012;-87
2021/08/25 05:48:18;;;;;;;12.25;7.97;;;;;;;21.85;100.00;101159.31;1670127;84;21120;-85
2021/08/25 05:50:48;;;;;;;16.20;9.80;;;;;;;21.92;100.00;101167.77;1669745;83;21094;-85
2021/08/25 05:53:14;;;;;;;15.43;10.00;;;;;;;22.00;100.00;101171.77;1667371;85;21019;-82
2021/08/25 05:55:41;;;;;;;13.15;9.05;;;;;;;22.10;100.00;101168.97;1667556;86;21073;-87
2021/08/25 05:58:08;;;;;;;13.20;9.20;;;;;;;22.17;100.00;101168.66;1665844;85;21047;-87
2021/08/25 06:00:34;;;;;;;13.08;8.15;;;;;;;22.23;100.00;101168.48;1666961;84;21104;-86
2021/08/25 06:03:03;;;;;;;14.75;8.00;;;;;;;22.28;98.58;101164.84;1667919;84;21615;-86
2021/08/25 06:05:30;;;;;;;12.28;8.48;;;;;;;22.35;97.65;101168.48;1667572;84;21003;-84
2021/08/25 06:08:01;;;;;;;13.95;9.33;;;;;;;22.42;96.53;101166.34;1667620;84;20888;-86
2021/08/25 06:10:28;;;;;;;15.18;9.60;;;;;;;22.52;95.36;101171.47;1667853;86;20932;-84
2021/08/25 06:12:59;;;;;;;18.32;9.83;;;;;;;22.59;93.99;101166.66;1665744;84;21086;-86
2021/08/25 06:15:26;;;;;;;11.85;8.88;;;;;;;22.65;92.72;101167.34;1677199;84;20966;-81
2021/08/25 06:17:58;;;;;;;14.87;10.05;;;;;;;22.72;91.99;101171.47;1668595;84;21010;-83
2021/08/25 06:20:25;;;;;;;18.48;9.08;;;;;;;22.78;87.43;101169.99;1668853;84;20963;-85
2021/08/25 06:22:52;;;;;;;14.60;9.15;;;;;;;22.86;85.56;101173.94;1668903;86;20880;-84
2021/08/25 06:25:19;;;;;;;16.10;9.50;;;;;;;22.94;84.96;101172.61;1673210;84;21782;-86
2021/08/25 06:27:45;;;;;;;12.45;8.98;;;;;;;23.04;84.55;101177.20;1668804;84;20995;-85
2021/08/25 06:30:12;;;;;;;10.93;8.10;;;;;;;23.12;84.87;101175.86;1668777;84;20979;-82
2021/08/25 06:32:41;;;;;;;12.68;7.75;;;;;;;23.20;81.95;101174.50;1696154;83;20905;-84
2021/08/25 06:35:10;;;;;;;10.78;8.00;;;;;;;23.30;81.94;101178.28;1696636;83;21047;-84
2021/08/25 06:37:38;;;;;;;12.13;8.20;;;;;;;23.41;81.58;101176.63;1695934;83;21086;-85
2021/08/25 06:40:09;;;;;;;10.00;8.30;;;;;;;23.50;80.32;101179.07;1669074;84;20900;-84
2021/08/25 06:42:39;;;;;;;11.08;8.13;;;;;;;23.54;79.64;101178.23;1668336;84;21493;-79
2021/08/25 06:45:14;;;;;;;13.40;8.55;;;;;;;23.56;79.46;101170.92;1697005;83;20897;-85
2021/08/25 06:47:41;;;;;;;10.58;7.55;;;;;;;23.59;79.54;101163.95;1693523;83;21504;-85
2021/08/25 06:50:11;;;;;;;14.20;8.68;;;;;;;23.63;79.82;101170.56;1667512;84;21090;-83
2021/08/25 06:52:37;;;;;;;17.50;8.25;;;;;;;23.71;80.00;101171.34;1667721;85;21011;-83
2021/08/25 06:55:05;;;;;;;15.55;12.33;;;;;;;23.80;80.19;101177.94;1668352;84;20940;-83
2021/08/25 06:57:37;;;;;;;9.65;8.03;;;;;;;23.85;78.91;101172.92;1641769;87;21013;-82
2021/08/25 07:00:06;;;;;;;14.30;7.95;;;;;;;23.90;78.12;101171.92;1656874;84;21094;-85
2021/08/25 07:02:34;;;;;;;13.05;7.70;;;;;;;23.95;77.11;101171.70;1668898;86;21191;-83
2021/08/25 07:05:06;;;;;;;10.00;7.78;;;;;;;24.04;76.96;101175.95;1669347;84;20927;-81
2021/08/25 07:07:36;;;;;;;8.88;6.87;;;;;;;24.13;76.26;101169.62;1643392;86;21003;-81
2021/08/25 07:10:05;;;;;;;8.43;6.65;;;;;;;24.19;75.82;101172.05;1669015;86;20999;-81
2021/08/25 07:12:34;;;;;;;11.73;6.97;;;;;;;24.26;75.93;101168.20;1668449;86;21086;-88
2021/08/25 07:15:03;;;;;;;10.53;7.37;;;;;;;24.34;75.78;101168.98;1669424;84;21415;-83
2021/08/25 07:17:30;;;;;;;11.30;7.92;;;;;;;24.40;75.42;101164.78;1667426;86;20961;-82
2021/08/25 07:19:58;;;;;;;11.90;7.85;;;;;;;24.45;74.72;101165.05;1668680;84;33401;-85
2021/08/25 07:22:24;;;;;;;11.08;8.40;;;;;;;24.51;72.40;101165.66;1668681;84;21017;-80
2021/08/25 07:24:51;;;;;;;13.25;8.85;;;;;;;24.55;72.17;101166.47;1668160;86;21158;-80
2021/08/25 07:27:19;;;;;;;9.63;8.53;;;;;;;24.55;72.27;101165.63;1668427;84;21105;-81
2021/08/25 07:29:46;;;;;;;11.57;8.00;;;;;;;24.59;72.84;101165.61;1668345;86;20939;-79
2021/08/25 07:32:15;;;;;;;8.60;7.70;;;;;;;24.65;71.46;101165.72;1667764;85;21545;-80
2021/08/25 07:34:44;;;;;;;10.65;7.90;;;;;;;24.72;70.31;101163.99;1667834;86;21494;-86
2021/08/25 07:37:19;;;;;;;11.97;8.20;;;;;;;24.78;69.93;101165.09;1637728;86;20988;-82
2021/08/25 07:39:48;;;;;;;14.90;8.58;;;;;;;24.84;69.37;101160.41;1682198;84;21527;-80
2021/08/25 07:42:16;;;;;;;11.90;8.95;;;;;;;24.87;69.24;101157.89;1696833;84;20983;-78
2021/08/25 07:44:43;;;;;;;17.10;8.98;;;;;;;24.95;69.70;101154.67;1697055;84;21584;-80
2021/08/25 07:47:11;;;;;;;14.95;7.78;;;;;;;25.04;69.83;101158.05;1696236;84;21146;-82
2021/08/25 07:49:38;;;;;;;10.88;8.30;;;;;;;25.13;69.59;101155.12;1696588;83;21696;-80
2021/08/25 07:52:06;;;;;;;12.93;7.55;;;;;;;25.24;69.14;101155.97;1697005;84;21144;-81
2021/08/25 07:54:34;;;;;;;9.08;6.87;;;;;;;25.35;68.22;101162.66;1698096;84;20908;-84
2021/08/25 07:57:28;;;;;;;8.88;7.22;;;;;;;25.44;64.87;101164.69;1698101;83;20953;-87
2021/08/25 07:59:57;;;;;;;11.50;7.30;;;;;;;25.42;63.99;101161.41;1688802;84;21069;-84
2021/08/25 08:02:24;;;;;;;7.65;6.83;;;;;;;25.46;63.59;101155.55;1678357;84;21594;-81
2021/08/25 08:04:51;;;;;;;10.85;7.70;;;;;;;25.50;63.60;101158.67;1655803;85;21884;-81
2021/08/25 08:07:19;;;;;;;11.95;7.42;;;;;;;25.57;63.71;101148.95;1679920;85;20947;-83
2021/08/25 08:09:47;;;;;;;12.63;7.85;;;;;;;25.66;62.67;101152.64;1677958;85;20970;-87
2021/08/25 08:12:14;;;;;;;11.97;8.83;;;;;;;25.74;62.18;101149.05;1678091;85;20998;-85
2021/08/25 08:14:43;;;;;;;11.65;8.20;;;;;;;25.80;61.80;101148.30;1677287;84;21254;-86
2021/08/25 08:17:10;;;;;;;14.38;9.25;;;;;;;25.83;61.35;101140.44;1677839;84;21148;-85
2021/08/25 08:19:36;;;;;;;29.20;9.58;;;;;;;25.86;61.54;101146.70;1677772;85;21013;-82
2021/08/25 08:22:03;;;;;;;14.07;9.28;;;;;;;25.88;61.86;101137.52;1677738;85;21030;-82
2021/08/25 08:24:32;;;;;;;11.53;9.10;;;;;;;25.88;61.30;101137.52;1677653;85;21010;-82
2021/08/25 08:27:01;;;;;;;14.60;8.58;;;;;;;25.93;61.73;101136.97;1678037;85;21441;-83
2021/08/25 08:29:28;;;;;;;11.70;8.35;;;;;;;26.04;61.61;101135.95;1677449;84;21141;-80
2021/08/25 08:31:55;;;;;;;8.83;7.53;;;;;;;26.17;61.50;101141.42;1678045;85;21030;-82
2021/08/25 08:34:22;;;;;;;10.30;8.20;;;;;;;26.27;61.81;101142.43;1677484;84;21049;-85
2021/08/25 08:36:49;;;;;;;18.70;7.40;;;;;;;26.31;61.78;101142.37;1677652;84;21121;-78
2021/08/25 08:39:16;;;;;;;11.68;8.18;;;;;;;26.38;61.68;101144.59;1677957;84;21521;-86
2021/08/25 08:41:45;;;;;;;8.23;6.90;;;;;;;26.46;61.33;101142.27;1677314;84;21690;-82
2021/08/25 08:44:13;;;;;;;10.25;7.50;;;;;;;26.53;60.13;101144.48;1677605;84;20923;-78
2021/08/25 08:46:54;;;;;;;9.95;7.95;;;;;;;26.54;59.19;101140.31;1654286;84;20989;-83
2021/08/25 08:49:22;;;;;;;9.60;7.35;;;;;;;26.48;59.55;101131.78;1656050;85;21014;-85
2021/08/25 08:51:51;;;;;;;11.40;7.45;;;;;;;26.51;59.74;101133.22;1677864;85;20918;-87
2021/08/25 08:54:19;;;;;;;10.95;7.37;;;;;;;26.58;59.73;101123.45;1678068;85;21099;-82
2021/08/25 08:56:48;;;;;;;11.83;7.05;;;;;;;26.68;59.83;101120.73;1677893;85;21002;-82
2021/08/25 08:59:15;;;;;;;7.97;7.10;;;;;;;26.78;58.19;101112.41;1653757;85;20985;-86
2021/08/25 09:01:44;;;;;;;8.28;6.78;;;;;;;26.87;57.34;101117.91;1677805;85;21006;-87
2021/08/25 09:04:35;;;;;;;10.15;7.25;;;;;;;26.91;55.78;101113.84;1678217;85;20907;-82
2021/08/25 09:07:03;;;;;;;9.08;6.95;;;;;;;26.89;55.21;101110.57;1677974;85;21103;-84
2021/08/25 09:09:54;;;;;;;8.00;7.20;;;;;;;26.92;55.62;101111.50;1677518;85;21027;-82
2021/08/25 09:12:22;;;;;;;12.03;8.05;;;;;;;26.98;54.99;101105.89;1677406;84;20994;-83
2021/08/25 09:14:51;;;;;;;10.38;7.10;;;;;;;26.97;55.57;101110.39;1670452;85;21490;-85
2021/08/25 09:17:30;;;;;;;7.12;5.80;;;;;;;27.04;55.00;101103.27;1677882;85;21063;-81
2021/08/25 09:20:08;;;;;;;10.35;5.65;;;;;;;27.13;52.44;101099.41;1678051;85;21139;-85
2021/08/25 09:22:36;;;;;;;8.13;6.85;;;;;;;27.25;52.31;101095.69;1677727;85;21021;-86
2021/08/25 09:25:05;;;;;;;9.20;6.83;;;;;;;27.37;51.89;101092.75;1677911;85;21489;-82
2021/08/25 09:27:31;;;;;;;9.40;7.05;;;;;;;27.41;51.32;101099.84;1676899;85;21003;-87
2021/08/25 09:30:01;;;;;;;7.33;6.58;;;;;;;27.46;51.25;101086.23;1677886;85;21034;-81
2021/08/25 09:32:29;;;;;;;7.47;6.78;;;;;;;27.58;50.58;101090.47;1677740;85;21665;-79
2021/08/25 09:35:03;;;;;;;9.80;7.60;;;;;;;27.69;49.84;101085.89;1677636;84;20966;-78
2021/08/25 09:37:33;;;;;;;11.20;9.30;;;;;;;27.76;49.53;101079.52;1677755;85;21023;-83
2021/08/25 09:40:02;;;;;;;14.47;12.15;;;;;;;27.92;49.02;101077.51;1678021;85;21115;-79
2021/08/25 09:42:41;;;;;;;13.90;9.85;;;;;;;28.02;48.42;101074.72;1677877;85;21053;-84
2021/08/25 09:45:14;;;;;;;8.98;8.08;;;;;;;28.21;48.89;101073.94;1678098;84;21022;-83
2021/08/25 09:47:52;;;;;;;6.83;6.13;;;;;;;28.43;47.15;101064.38;1678262;85;21640;-78
2021/08/25 09:50:25;;;;;;;8.75;7.30;;;;;;;28.53;43.89;101062.08;1652529;85;20891;-79
2021/08/25 09:52:52;;;;;;;10.10;6.67;;;;;;;28.76;44.05;101063.30;1677347;85;21078;-79
2021/08/25 09:55:31;;;;;;;6.90;5.70;;;;;;;29.54;44.23;101058.66;1677655;85;21015;-81
2021/08/25 09:57:58;;;;;;;11.65;8.48;;;;;;;30.54;41.55;101056.85;1677605;85;21521;-80
2021/08/25 10:00:26;;;;;;;10.38;6.05;;;;;;;31.22;39.87;101051.60;1684782;83;20853;-82
2021/08/25 10:02:53;;;;;;;8.23;5.75;;;;;;;31.75;39.31;101052.22;1697140;84;21113;-82
2021/08/25 10:05:28;;;;;;;7.67;5.53;;;;;;;32.47;38.32;101050.98;1696357;84;20893;-85
2021/08/25 10:07:54;;;;;;;7.05;5.35;;;;;;;33.13;36.27;101049.17;1697128;84;20991;-85
2021/08/25 10:10:22;;;;;;;7.80;5.78;;;;;;;33.59;35.94;101037.89;1696733;84;21115;-91
2021/08/25 10:12:51;;;;;;;11.35;5.70;;;;;;;34.20;35.10;101041.08;1696905;83;20937;-78
2021/08/25 10:15:45;;;;;;;10.55;6.45;;;;;;;34.96;33.63;101038.33;1689385;84;21506;-84
2021/08/25 10:18:29;;;;;;;7.12;6.00;;;;;;;35.52;32.42;101040.25;1655214;84;20962;-84
2021/08/25 10:20:59;;;;;;;6.92;6.22;;;;;;;35.25;31.06;101033.54;1691488;84;21593;-83
2021/08/25 10:24:00;;;;;;;7.17;5.55;;;;;;;34.70;32.27;101026.14;1696566;83;21121;-87
2021/08/25 10:26:26;;;;;;;6.45;5.85;;;;;;;34.23;31.73;101023.89;1696799;84;21031;-84
2021/08/25 10:29:04;;;;;;;9.35;6.35;;;;;;;32.91;33.96;101030.69;1697179;83;21059;-84
2021/08/25 10:31:56;;;;;;;10.38;6.60;;;;;;;32.18;35.09;101031.78;1696927;84;20979;-77
2021/08/25 10:34:33;;;;;;;11.18;5.83;;;;;;;31.65;35.79;101025.12;1697056;84;20948;-85
2021/08/25 10:37:27;;;;;;;8.75;5.10;;;;;;;31.00;36.48;101023.65;1696806;84;21127;-82
2021/08/25 10:40:00;;;;;;;6.28;5.67;;;;;;;30.54;36.96;101031.41;1696922;84;21050;-83
2021/08/25 10:42:51;;;;;;;8.70;6.22;;;;;;;29.91;37.99;101027.53;1696779;84;21015;-79
2021/08/25 10:45:45;;;;;;;8.03;5.85;;;;;;;29.60;39.90;101024.87;1697020;84;20881;-77
2021/08/25 10:48:13;;;;;;;10.08;7.15;;;;;;;29.67;40.52;101020.30;1653585;86;21029;-79
2021/08/25 10:50:56;;;;;;;12.00;6.85;;;;;;;29.67;40.47;101025.13;1684990;84;20961;-83
2021/08/25 10:53:37;;;;;;;7.47;6.35;;;;;;;29.56;40.45;101027.67;1671090;84;21472;-84
2021/08/25 10:56:11;;;;;;;9.38;5.75;;;;;;;29.58;40.69;101019.72;1669361;84;20935;-80
2021/08/25 10:58:55;;;;;;;7.55;5.92;;;;;;;29.59;40.52;101021.89;1670217;84;20947;-86
2021/08/25 11:01:44;;;;;;;8.55;6.60;;;;;;;29.58;40.47;101029.63;1665992;85;20894;-84
2021/08/25 11:04:19;;;;;;;8.25;5.83;;;;;;;29.50;41.20;101020.00;1691130;84;21589;-82
2021/08/25 11:07:09;;;;;;;10.50;6.28;;;;;;;29.55;41.80;101024.71;1707546;82;21016;-80
2021/08/25 11:09:42;;;;;;;11.40;5.97;;;;;;;29.65;41.27;101027.19;1707653;83;21019;-80
2021/08/25 11:12:16;;;;;;;8.73;5.90;;;;;;;29.67;41.44;101018.96;1707893;84;21025;-84
2021/08/25 11:14:53;;;;;;;8.00;6.65;;;;;;;29.60;41.52;101021.69;1707822;84;20931;-90
2021/08/25 11:17:28;;;;;;;10.78;7.72;;;;;;;29.67;42.02;101010.42;1707892;84;21434;-81
2021/08/25 11:20:06;;;;;;;11.38;7.37;;;;;;;29.87;41.36;101018.30;1707785;84;22350;-80
2021/08/25 11:22:37;;;;;;;10.35;6.53;;;;;;;29.95;41.38;101009.19;1707652;84;21055;-80